createdAt,value
2022-11-03T00:01:00.148Z,8.20
2022-11-03T00:03:28.595Z,8.19
2022-11-03T00:19:26.268Z,8.09
2022-11-03T00:21:58.499Z,8.13
2022-11-03T00:24:26.895Z,8.15
2022-11-03T00:26:55.196Z,8.09
2022-11-03T00:29:25.296Z,8.13
2022-11-03T00:31:55.158Z,8.11
2022-11-03T00:34:23.433Z,8.13
2022-11-03T00:36:51.668Z,8.11
2022-11-03T00:39:20.188Z,8.02
2022-11-03T00:41:48.593Z,7.91
2022-11-03T00:44:16.861Z,7.82
2022-11-03T00:46:45.245Z,7.83
2022-11-03T00:49:14.921Z,7.89
2022-11-03T00:51:43.317Z,7.95
2022-11-03T00:54:11.629Z,7.88
2022-11-03T00:56:41.027Z,7.80
2022-11-03T00:59:10.628Z,7.77
2022-11-03T01:01:46.631Z,7.69
2022-11-03T01:04:27.821Z,7.73
2022-11-03T01:06:57.333Z,7.64
2022-11-03T01:09:28.239Z,7.50
2022-11-03T01:12:00.887Z,7.45
2022-11-03T01:14:30.528Z,7.49
2022-11-03T01:16:59.278Z,7.46
2022-11-03T01:19:29.159Z,7.47
2022-11-03T01:21:58.002Z,7.47
2022-11-03T01:24:26.190Z,7.49
2022-11-03T01:26:54.629Z,7.38
2022-11-03T01:29:22.858Z,7.36
2022-11-03T01:31:51.088Z,7.29
2022-11-03T01:34:20.412Z,7.31
2022-11-03T01:36:50.181Z,7.32
2022-11-03T01:39:19.645Z,7.28
2022-11-03T01:41:48.913Z,7.23
2022-11-03T01:44:28.278Z,7.24
2022-11-03T01:46:59.335Z,7.24
2022-11-03T01:49:30.877Z,7.29
2022-11-03T01:52:03.345Z,7.36
2022-11-03T01:54:32.226Z,7.44
2022-11-03T01:57:01.465Z,7.48
2022-11-03T01:59:29.869Z,7.51
2022-11-03T02:01:58.153Z,7.53
2022-11-03T02:04:28.645Z,7.55
2022-11-03T02:07:02.004Z,7.52
2022-11-03T02:09:32.438Z,7.54
2022-11-03T02:12:08.231Z,7.52
2022-11-03T02:14:38.277Z,7.52
2022-11-03T02:17:09.180Z,7.54
2022-11-03T02:19:39.918Z,7.52
2022-11-03T02:22:17.526Z,7.50
2022-11-03T02:24:53.973Z,7.58
2022-11-03T02:27:24.550Z,7.59
2022-11-03T02:29:52.908Z,7.62
2022-11-03T02:32:23.592Z,7.59
2022-11-03T02:34:56.925Z,7.55
2022-11-03T02:37:27.301Z,7.51
2022-11-03T02:39:59.432Z,7.51
2022-11-03T02:42:29.332Z,7.49
2022-11-03T02:45:00.688Z,7.43
2022-11-03T02:47:29.990Z,7.39
2022-11-03T02:49:58.332Z,7.37
2022-11-03T02:52:37.551Z,7.34
2022-11-03T02:55:09.139Z,7.32
2022-11-03T02:57:41.016Z,7.26
2022-11-03T03:00:10.312Z,7.20
2022-11-03T03:02:41.587Z,7.10
2022-11-03T03:05:12.449Z,7.04
2022-11-03T03:07:45.638Z,7.06
2022-11-03T03:10:16.271Z,7.05
2022-11-03T03:12:48.800Z,7.04
2022-11-03T03:15:18.313Z,6.96
2022-11-03T03:17:51.691Z,6.91
2022-11-03T03:20:22.499Z,6.86
2022-11-03T03:22:54.919Z,6.77
2022-11-03T03:25:25.246Z,6.70
2022-11-03T03:27:56.911Z,6.63
2022-11-03T03:30:25.349Z,6.65
2022-11-03T03:32:53.766Z,6.72
2022-11-03T03:35:24.259Z,6.75
2022-11-03T03:37:54.720Z,6.80
2022-11-03T03:40:24.120Z,6.81
2022-11-03T03:42:53.698Z,6.79
2022-11-03T03:45:23.581Z,6.80
2022-11-03T03:47:57.313Z,6.80
2022-11-03T03:50:27.096Z,6.83
2022-11-03T03:52:56.428Z,6.84
2022-11-03T03:55:28.171Z,6.83
2022-11-03T03:57:59.522Z,6.85
2022-11-03T04:00:30.472Z,6.77
2022-11-03T04:02:59.242Z,6.69
2022-11-03T04:05:27.763Z,6.79
2022-11-03T04:07:56.438Z,6.80
2022-11-03T04:10:24.871Z,6.81
2022-11-03T04:13:01.928Z,6.85
2022-11-03T04:15:41.989Z,6.88
2022-11-03T04:18:20.988Z,6.95
2022-11-03T04:20:58.007Z,6.95
2022-11-03T04:23:26.550Z,6.87
2022-11-03T04:25:56.021Z,6.86
2022-11-03T04:28:26.027Z,6.91
2022-11-03T04:30:58.885Z,6.90
2022-11-03T04:33:28.019Z,6.92
2022-11-03T04:35:57.210Z,6.93
2022-11-03T04:38:27.626Z,6.96
2022-11-03T04:40:57.064Z,7.00
2022-11-03T04:43:31.250Z,6.98
2022-11-03T04:46:04.268Z,6.99
2022-11-03T04:48:34.559Z,6.98
2022-11-03T04:51:07.907Z,6.97
2022-11-03T04:53:36.365Z,6.99
2022-11-03T04:56:15.372Z,7.00
2022-11-03T04:58:44.038Z,7.01
2022-11-03T05:01:17.271Z,6.96
2022-11-03T05:03:51.070Z,6.91
2022-11-03T05:06:21.176Z,6.90
2022-11-03T05:08:54.898Z,6.89
2022-11-03T05:11:32.296Z,6.84
2022-11-03T05:14:02.302Z,6.79
2022-11-03T05:16:32.350Z,6.77
2022-11-03T05:19:00.909Z,6.73
2022-11-03T05:21:30.785Z,6.73
2022-11-03T05:23:59.891Z,6.74
2022-11-03T05:26:31.200Z,6.74
2022-11-03T05:29:01.977Z,6.75
2022-11-03T05:31:32.830Z,6.79
2022-11-03T05:34:02.888Z,6.79
2022-11-03T05:36:32.536Z,6.76
2022-11-03T05:39:02.910Z,6.71
2022-11-03T05:41:31.778Z,6.74
2022-11-03T05:44:00.952Z,6.78
2022-11-03T05:46:32.800Z,6.80
2022-11-03T05:49:02.360Z,6.75
2022-11-03T05:51:33.370Z,6.69
2022-11-03T05:54:03.841Z,6.62
2022-11-03T05:56:33.062Z,6.60
2022-11-03T05:59:01.771Z,6.62
2022-11-03T06:01:32.603Z,6.68
2022-11-03T06:04:02.745Z,6.73
2022-11-03T06:06:33.562Z,6.78
2022-11-03T06:09:04.039Z,6.81
2022-11-03T06:11:34.081Z,6.87
2022-11-03T06:14:02.808Z,6.99
2022-11-03T06:16:38.900Z,7.03
2022-11-03T06:19:28.338Z,7.01
2022-11-03T06:21:58.789Z,7.02
2022-11-03T06:24:39.283Z,6.99
2022-11-03T06:27:10.854Z,6.98
2022-11-03T06:29:39.660Z,7.05
2022-11-03T06:32:11.924Z,7.13
2022-11-03T06:34:42.883Z,7.14
2022-11-03T06:37:22.071Z,7.19
2022-11-03T06:39:50.810Z,7.33
2022-11-03T06:42:21.522Z,7.51
2022-11-03T06:44:51.235Z,7.59
2022-11-03T06:47:24.532Z,7.63
2022-11-03T06:49:54.824Z,7.68
2022-11-03T06:52:31.893Z,7.69
2022-11-03T06:55:17.340Z,7.76
2022-11-03T06:57:48.046Z,7.88
2022-11-03T07:00:33.480Z,8.01
2022-11-03T07:03:08.911Z,8.18
2022-11-03T07:05:38.253Z,8.32
2022-11-03T07:08:21.707Z,8.42
2022-11-03T07:10:51.501Z,8.54
2022-11-03T07:13:21.564Z,8.68
2022-11-03T07:15:49.834Z,8.80
2022-11-03T07:18:22.874Z,8.95
2022-11-03T07:20:52.302Z,9.09
2022-11-03T07:23:21.923Z,9.20
2022-11-03T07:25:53.532Z,9.25
2022-11-03T07:28:23.003Z,9.36
2022-11-03T07:30:51.332Z,9.47
2022-11-03T07:33:22.583Z,9.56
2022-11-03T07:36:14.456Z,9.57
2022-11-03T07:38:39.856Z,9.54
2022-11-03T07:41:10.722Z,9.48
2022-11-03T07:43:39.134Z,9.44
2022-11-03T07:46:08.482Z,9.41
2022-11-03T07:48:40.654Z,9.45
2022-11-03T07:51:16.683Z,9.48
2022-11-03T07:53:45.703Z,9.62
2022-11-03T07:56:19.861Z,9.76
2022-11-03T07:58:49.383Z,9.90
2022-11-03T08:01:24.321Z,10.07
2022-11-03T08:03:56.882Z,10.36
2022-11-03T08:06:25.123Z,10.43
2022-11-03T08:08:53.803Z,10.43
2022-11-03T08:11:27.797Z,10.31
2022-11-03T08:13:58.165Z,10.33
2022-11-03T08:16:26.724Z,10.39
2022-11-03T08:18:56.474Z,10.51
2022-11-03T08:21:24.994Z,10.65
2022-11-03T08:23:53.503Z,10.87
2022-11-03T08:26:21.923Z,11.07
2022-11-03T08:28:50.553Z,11.28
2022-11-03T08:31:18.682Z,11.34
2022-11-03T08:33:47.105Z,11.44
2022-11-03T08:36:17.378Z,11.42
2022-11-03T08:38:45.840Z,11.29
2022-11-03T08:41:14.130Z,11.26
2022-11-03T08:43:42.511Z,11.36
2022-11-03T08:46:17.280Z,11.57
2022-11-03T08:48:47.602Z,11.82
2022-11-03T08:51:17.636Z,11.93
2022-11-03T08:53:46.572Z,12.08
2022-11-03T08:56:20.459Z,12.23
2022-11-03T08:58:51.152Z,12.25
2022-11-03T09:01:19.451Z,12.32
2022-11-03T09:03:47.951Z,12.34
2022-11-03T09:06:18.222Z,12.36
2022-11-03T09:11:35.058Z,12.45
2022-11-03T09:14:03.324Z,12.48
2022-11-03T09:16:31.744Z,12.45
2022-11-03T09:18:59.895Z,12.47
2022-11-03T09:21:29.725Z,12.53
2022-11-03T09:23:59.732Z,12.61
2022-11-03T09:26:28.217Z,12.65
2022-11-03T09:28:56.875Z,12.67
2022-11-03T09:31:28.554Z,12.69
2022-11-03T09:33:57.199Z,12.78
2022-11-03T09:36:25.509Z,12.83
2022-11-03T09:38:55.353Z,12.80
2022-11-03T09:41:27.793Z,12.81
2022-11-03T09:44:14.607Z,12.87
2022-11-03T09:46:43.076Z,12.93
2022-11-03T09:49:14.188Z,13.01
2022-11-03T09:51:42.888Z,13.08
2022-11-03T09:54:15.048Z,13.19
2022-11-03T09:56:43.918Z,13.30
2022-11-03T09:59:16.521Z,13.36
2022-11-03T10:01:48.901Z,13.50
2022-11-03T10:04:18.147Z,13.70
2022-11-03T10:06:46.477Z,13.91
2022-11-03T10:09:21.337Z,14.20
2022-11-03T10:11:49.687Z,14.39
2022-11-03T10:14:19.347Z,14.67
2022-11-03T10:16:53.481Z,14.91
2022-11-03T10:19:22.299Z,15.05
2022-11-03T10:21:50.566Z,15.19
2022-11-03T10:24:20.476Z,15.21
2022-11-03T10:26:50.102Z,15.42
2022-11-03T10:29:21.173Z,15.58
2022-11-03T10:31:52.221Z,15.66
2022-11-03T10:34:42.029Z,15.66
2022-11-03T10:37:12.069Z,15.85
2022-11-03T10:39:41.818Z,16.18
2022-11-03T10:42:17.948Z,16.27
2022-11-03T10:44:46.234Z,16.38
2022-11-03T10:47:24.380Z,16.34
2022-11-03T10:49:55.290Z,16.28
2022-11-03T10:52:24.657Z,16.40
2022-11-03T10:54:55.066Z,16.46
2022-11-03T10:57:23.931Z,16.53
2022-11-03T10:59:54.467Z,16.78
2022-11-03T11:02:24.166Z,17.12
2022-11-03T11:04:55.180Z,17.32
2022-11-03T11:07:26.502Z,17.52
2022-11-03T11:09:56.361Z,17.70
2022-11-03T11:12:25.263Z,17.57
2022-11-03T11:14:55.098Z,17.60
2022-11-03T11:17:34.522Z,17.72
2022-11-03T11:20:13.593Z,17.73
2022-11-03T11:22:41.984Z,17.78
2022-11-03T11:25:11.591Z,17.84
2022-11-03T11:27:55.459Z,17.80
2022-11-03T11:30:37.494Z,17.73
2022-11-03T11:33:14.513Z,17.73
2022-11-03T11:35:58.754Z,17.74
2022-11-03T11:38:38.254Z,17.72
2022-11-03T11:41:08.215Z,17.74
2022-11-03T11:43:36.615Z,17.85
2022-11-03T11:46:15.653Z,17.88
2022-11-03T11:48:44.006Z,17.91
2022-11-03T11:51:13.072Z,18.00
2022-11-03T11:53:42.978Z,18.19
2022-11-03T11:56:14.233Z,18.31
2022-11-03T11:58:43.936Z,18.11
2022-11-03T12:01:23.243Z,17.93
2022-11-03T12:03:52.902Z,17.60
2022-11-03T12:06:33.670Z,17.44
2022-11-03T12:09:17.579Z,17.31
2022-11-03T12:11:50.133Z,17.12
2022-11-03T12:14:27.161Z,16.88
2022-11-03T12:16:55.710Z,16.85
2022-11-03T12:19:35.028Z,16.88
2022-11-03T12:22:03.727Z,16.85
2022-11-03T12:24:43.026Z,16.75
2022-11-03T12:27:22.302Z,16.84
2022-11-03T12:29:52.102Z,16.91
2022-11-03T12:32:32.799Z,16.95
2022-11-03T12:35:03.221Z,17.08
2022-11-03T12:37:31.502Z,17.11
2022-11-03T12:39:59.875Z,17.29
2022-11-03T12:42:28.367Z,17.44
2022-11-03T12:44:58.213Z,17.32
2022-11-03T12:47:26.582Z,17.19
2022-11-03T12:49:54.891Z,17.08
2022-11-03T12:52:23.244Z,17.15
2022-11-03T12:54:51.514Z,17.37
2022-11-03T12:57:19.867Z,17.58
2022-11-03T12:59:48.274Z,17.65
2022-11-03T13:02:18.371Z,17.73
2022-11-03T13:04:46.843Z,17.80
2022-11-03T13:07:15.896Z,17.65
2022-11-03T13:09:46.624Z,17.40
2022-11-03T13:12:24.832Z,17.35
2022-11-03T13:14:53.217Z,17.25
2022-11-03T13:17:22.905Z,17.08
2022-11-03T13:19:54.484Z,17.09
2022-11-03T13:22:23.193Z,16.88
2022-11-03T13:24:51.493Z,16.80
2022-11-03T13:27:19.762Z,16.82
2022-11-03T13:29:48.093Z,16.77
2022-11-03T13:32:16.456Z,16.65
2022-11-03T13:34:46.184Z,16.62
2022-11-03T13:37:14.557Z,16.59
2022-11-03T13:39:42.761Z,16.52
2022-11-03T13:42:11.294Z,16.33
2022-11-03T13:44:39.616Z,16.24
2022-11-03T13:47:11.548Z,16.17
2022-11-03T13:52:30.884Z,16.02
2022-11-03T14:00:36.435Z,15.78
2022-11-03T14:05:53.138Z,15.61
2022-11-03T14:08:22.802Z,15.57
2022-11-03T14:10:51.094Z,15.54
2022-11-03T14:13:18.396Z,15.57
2022-11-03T14:15:46.618Z,15.50
2022-11-03T14:18:14.951Z,15.46
2022-11-03T14:20:45.707Z,15.48
2022-11-03T14:23:14.058Z,15.52
2022-11-03T14:25:43.707Z,15.57
2022-11-03T14:28:12.018Z,15.56
2022-11-03T14:30:40.279Z,15.50
2022-11-03T14:33:08.801Z,15.36
2022-11-03T14:35:37.655Z,15.28
2022-11-03T14:38:05.988Z,15.22
2022-11-03T14:40:44.027Z,15.19
2022-11-03T14:43:13.872Z,15.16
2022-11-03T14:45:42.785Z,15.12
2022-11-03T14:48:11.436Z,15.09
2022-11-03T14:50:39.690Z,15.06
2022-11-03T14:53:07.954Z,15.02
2022-11-03T14:55:36.696Z,14.96
2022-11-03T14:58:05.267Z,14.90
2022-11-03T15:00:35.234Z,14.88
2022-11-03T15:03:05.083Z,14.85
2022-11-03T15:05:43.336Z,14.84
2022-11-03T15:08:11.834Z,14.85
2022-11-03T15:10:40.095Z,14.78
2022-11-03T15:13:08.599Z,14.75
2022-11-03T15:15:41.238Z,14.77
2022-11-03T15:18:10.015Z,14.78
2022-11-03T15:20:38.838Z,14.80
2022-11-03T15:25:55.995Z,14.75
2022-11-03T15:28:24.320Z,14.66
2022-11-03T15:30:53.983Z,14.57
2022-11-03T15:33:22.268Z,14.50
2022-11-03T15:35:50.949Z,14.49
2022-11-03T15:38:19.618Z,14.45
2022-11-03T15:40:47.783Z,14.39
2022-11-03T15:43:16.056Z,14.34
2022-11-03T15:45:44.548Z,14.30
2022-11-03T15:48:14.198Z,14.26
2022-11-03T15:50:42.555Z,14.21
2022-11-03T15:53:10.656Z,14.18
2022-11-03T15:55:38.986Z,14.16
2022-11-03T15:58:07.415Z,14.08
2022-11-03T16:00:36.521Z,13.97
2022-11-03T16:03:05.587Z,13.92
2022-11-03T16:05:35.453Z,13.79
2022-11-03T16:08:03.598Z,13.71
2022-11-03T16:10:31.826Z,13.64
2022-11-03T16:12:59.980Z,13.57
2022-11-03T16:15:28.185Z,13.52
2022-11-03T16:18:02.934Z,13.47
2022-11-03T16:20:31.295Z,13.43
2022-11-03T16:23:00.897Z,13.44
2022-11-03T16:25:29.167Z,13.47
2022-11-03T16:27:57.314Z,13.46
2022-11-03T16:30:25.559Z,13.48
2022-11-03T16:32:54.106Z,13.49
2022-11-03T16:35:22.396Z,13.49
2022-11-03T16:37:50.731Z,13.47
2022-11-03T16:40:20.497Z,13.46
2022-11-03T16:42:48.674Z,13.39
2022-11-03T16:45:19.328Z,13.34
2022-11-03T16:47:48.778Z,13.30
2022-11-03T16:50:17.581Z,13.31
2022-11-03T16:52:45.974Z,13.29
2022-11-03T16:55:15.243Z,13.34
2022-11-03T16:57:44.997Z,13.31
2022-11-03T17:00:14.839Z,13.23
2022-11-03T17:02:43.321Z,13.21
2022-11-03T17:05:12.093Z,13.20
2022-11-03T17:07:40.792Z,13.11
2022-11-03T17:10:09.781Z,13.07
2022-11-03T17:12:38.051Z,13.07
2022-11-03T17:15:08.209Z,13.05
2022-11-03T17:17:36.649Z,13.03
2022-11-03T17:20:05.166Z,13.05
2022-11-03T17:22:33.540Z,13.02
2022-11-03T17:25:01.915Z,13.05
2022-11-03T17:27:33.451Z,13.10
2022-11-03T17:30:02.930Z,13.09
2022-11-03T17:32:36.869Z,13.09
2022-11-03T17:35:05.648Z,13.12
2022-11-03T17:37:36.199Z,13.14
2022-11-03T17:40:05.769Z,13.09
2022-11-03T17:42:35.180Z,13.09
2022-11-03T17:45:03.430Z,13.11
2022-11-03T17:47:34.940Z,13.08
2022-11-03T17:50:03.304Z,13.03
2022-11-03T17:52:32.571Z,12.99
2022-11-03T17:55:01.411Z,12.95
2022-11-03T17:57:30.107Z,12.90
2022-11-03T17:59:59.477Z,12.92
2022-11-03T18:02:28.825Z,12.89
2022-11-03T18:05:01.622Z,12.88
2022-11-03T18:07:31.282Z,12.87
2022-11-03T18:09:59.751Z,12.83
2022-11-03T18:12:41.802Z,12.83
2022-11-03T18:15:14.401Z,12.83
2022-11-03T18:17:42.782Z,12.81
2022-11-03T18:20:17.594Z,12.77
2022-11-03T18:22:46.961Z,12.74
2022-11-03T18:25:15.808Z,12.72
2022-11-03T18:27:44.169Z,12.71
2022-11-03T18:30:13.581Z,12.71
2022-11-03T18:32:43.742Z,12.69
2022-11-03T18:35:17.019Z,12.66
2022-11-03T18:37:46.939Z,12.68
2022-11-03T18:40:16.043Z,12.71
2022-11-03T18:42:44.355Z,12.75
2022-11-03T18:45:13.352Z,12.74
2022-11-03T18:47:41.688Z,12.68
2022-11-03T18:50:14.518Z,12.66
2022-11-03T18:52:45.423Z,12.65
2022-11-03T18:55:16.456Z,12.59
2022-11-03T18:57:44.909Z,12.61
2022-11-03T19:00:19.140Z,12.66
2022-11-03T19:02:47.958Z,12.63
2022-11-03T19:05:16.761Z,12.63
2022-11-03T19:07:45.952Z,12.63
2022-11-03T19:10:16.842Z,12.67
2022-11-03T19:12:45.699Z,12.68
2022-11-03T19:15:18.547Z,12.65
2022-11-03T19:17:47.221Z,12.55
2022-11-03T19:20:16.357Z,12.58
2022-11-03T19:22:45.241Z,12.60
2022-11-03T19:25:14.728Z,12.58
2022-11-03T19:27:45.764Z,12.60
2022-11-03T19:30:15.392Z,12.59
2022-11-03T19:32:46.073Z,12.64
2022-11-03T19:35:19.953Z,12.58
2022-11-03T19:37:49.920Z,12.57
2022-11-03T19:40:21.082Z,12.58
2022-11-03T19:42:49.694Z,12.58
2022-11-03T19:45:19.320Z,12.57
2022-11-03T19:48:18.349Z,12.54
2022-11-03T19:50:39.255Z,12.57
2022-11-03T19:53:08.454Z,12.56
2022-11-03T19:55:38.481Z,12.54
2022-11-03T19:58:09.990Z,12.55
2022-11-03T20:00:38.415Z,12.55
2022-11-03T20:03:06.745Z,12.54
2022-11-03T20:05:35.160Z,12.56
2022-11-03T20:08:05.047Z,12.60
2022-11-03T20:10:35.968Z,12.63
2022-11-03T20:13:04.952Z,12.63
2022-11-03T20:15:35.026Z,12.64
2022-11-03T20:18:03.338Z,12.66
2022-11-03T20:20:35.401Z,12.62
2022-11-03T20:23:04.534Z,12.59
2022-11-03T20:25:35.330Z,12.60
2022-11-03T20:28:07.104Z,12.64
2022-11-03T20:30:36.878Z,12.66
2022-11-03T20:33:05.624Z,12.67
2022-11-03T20:35:36.042Z,12.66
2022-11-03T20:38:04.922Z,12.65
2022-11-03T20:40:33.697Z,12.63
2022-11-03T20:43:03.492Z,12.61
2022-11-03T20:45:31.873Z,12.62
2022-11-03T20:48:01.560Z,12.61
2022-11-03T20:50:31.063Z,12.62
2022-11-03T20:53:00.706Z,12.67
2022-11-03T20:55:30.165Z,12.67
2022-11-03T20:57:59.702Z,12.67
2022-11-03T21:00:28.464Z,12.67
2022-11-03T21:02:57.709Z,12.67
2022-11-03T21:05:28.681Z,12.67
2022-11-03T21:07:57.494Z,12.69
2022-11-03T21:10:25.730Z,12.71
2022-11-03T21:12:54.290Z,12.66
2022-11-03T21:15:33.136Z,12.67
2022-11-03T21:18:11.803Z,12.69
2022-11-03T21:20:41.505Z,12.75
2022-11-03T21:23:15.455Z,12.71
2022-11-03T21:25:43.761Z,12.75
2022-11-03T21:28:12.021Z,12.78
2022-11-03T21:30:40.414Z,12.75
2022-11-03T21:33:08.694Z,12.77
2022-11-03T21:35:37.010Z,12.81
2022-11-03T21:38:07.040Z,12.85
2022-11-03T21:40:35.853Z,12.81
2022-11-03T21:43:14.210Z,12.84
2022-11-03T21:45:42.584Z,12.84
2022-11-03T21:48:21.194Z,12.84
2022-11-03T21:50:50.252Z,12.81
2022-11-03T21:53:19.911Z,12.86
2022-11-03T21:55:49.175Z,12.83
2022-11-03T21:58:17.413Z,12.84
2022-11-03T22:00:47.429Z,12.84
2022-11-03T22:03:15.885Z,12.83
2022-11-03T22:05:44.134Z,12.80
2022-11-03T22:08:12.383Z,12.82
2022-11-03T22:10:42.072Z,12.82
2022-11-03T22:13:11.044Z,12.79
2022-11-03T22:15:49.742Z,12.82
2022-11-03T22:18:17.962Z,12.79
2022-11-03T22:20:55.964Z,12.80
2022-11-03T22:23:34.467Z,12.82
2022-11-03T22:26:14.135Z,12.80
2022-11-03T22:28:42.391Z,12.84
2022-11-03T22:31:20.564Z,12.83
2022-11-03T22:33:58.949Z,12.79
2022-11-03T22:36:28.683Z,12.79
2022-11-03T22:39:06.731Z,12.84
2022-11-03T22:41:46.595Z,12.86
2022-11-03T22:44:24.995Z,12.85
2022-11-03T22:46:53.314Z,12.83
2022-11-03T22:49:21.567Z,12.88
2022-11-03T22:51:49.927Z,12.93
2022-11-03T22:54:18.355Z,12.92
2022-11-03T22:56:48.054Z,12.89
2022-11-03T22:59:16.373Z,12.89
2022-11-03T23:01:44.903Z,12.89
2022-11-03T23:04:13.249Z,12.89
2022-11-03T23:06:41.771Z,12.85
2022-11-03T23:09:11.455Z,12.83
2022-11-03T23:11:39.935Z,12.84
2022-11-03T23:14:10.535Z,12.83
2022-11-03T23:16:40.171Z,12.84
2022-11-03T23:19:18.722Z,12.88
2022-11-03T23:21:47.492Z,12.89
2022-11-03T23:24:25.562Z,12.88
2022-11-03T23:26:53.942Z,12.90
2022-11-03T23:29:23.961Z,12.87
2022-11-03T23:31:52.476Z,12.84
2022-11-03T23:34:20.930Z,12.82
2022-11-03T23:36:49.204Z,12.84
2022-11-03T23:39:18.648Z,12.86
2022-11-03T23:41:48.115Z,12.86
2022-11-03T23:44:16.745Z,12.86
2022-11-03T23:46:56.652Z,12.89
2022-11-03T23:49:25.534Z,12.87
2022-11-03T23:51:53.805Z,12.85
2022-11-03T23:54:22.197Z,12.80
2022-11-03T23:57:00.456Z,12.79
2022-11-03T23:59:29.651Z,12.78
